Terminal Aerodrome Forecast
Issued by NWS

Home | Current Version | Previous Version | Text Only | Print | Product List | Glossary On
Versions: 1 2 3 4 5 6 7 8 9 10 11 12 13 14 15 16
000
FTPA31 PHFO 201138
TAFHLI
TAF
PHLI 201138Z 2012/2112 06015KT P6SM VCSH SCT025 BKN040 OVC060
      TEMPO 2012/2016 4SM SHRA BR BKN025 OVC040
     FM202000 06015G21KT P6SM FEW025 SCT050=

USA.gov is the U.S. government's official web portal to all federal, state and local government web resources and services.